Terminal Aerodrome Forecast
Issued by NWS Charleston, WV

Current Version | Previous Version | Text Only | Print | Product List | Glossary On
Versions: 1 2 3 4 5 6 7 8 9 10 11 12 13 14 15 16 17 18 19 20 21 22 23 24
612
FTUS41 KRLX 250535
TAFCRW
TAF
KCRW 250535Z 2506/2606 19003KT P6SM SCT250 WS020/24040KT
     FM251200 21010KT P6SM BKN200
     FM251600 25012G18KT P6SM OVC050
     FM252300 29006KT P6SM BKN025=

USA.gov is the U.S. government's official web portal to all federal, state and local government web resources and services.